Meteo Giornale » Osservazioni meteo Arabia Saudita » Jeddah King Abdul Aziz
ore: 20:00 - Osservazioni Meteo Jeddah King Abdul Aziz
Lat. 21° 42' N Lon. 39° 11' E Alt. 15 metri s.l.m.
34 °C
Sereno
Temp. 24 Ore
31 °C
37 °C
Nord
22.2 Km/h
Dew point 21 °C
Umidità 46 %
Visibilità 10 Km
Il sole sorge alle ore 06:06
Il sole tramonta alle ore 18:40
| Data e Ora | Cielo e Fenomeni | T °C | DP °C | Um. % | Pres. hPa | Vis. km | Vento km/h | |
|---|---|---|---|---|---|---|---|---|
| Oggi h: 20:00 | Sereno | 34 | 21 | 46 | 1005 | 10 | N 22.2 | |
| Oggi h: 19:00 | Sereno | 35 | 19 | 39 | 1004 | 10 | N/NO 33.3 | |
| Oggi h: 18:00 | Sereno | 36 | 19 | 36 | 1004 | 10 | N/NO 31.5 | |
| Oggi h: 17:00 | Sereno | 37 | 21 | 39 | 1004 | 10 | N/NO 29.6 | |
| Oggi h: 16:00 | Sereno | 37 | 24 | 47 | 1004 | 10 | NO 24 | |
| Oggi h: 15:00 | Sereno | 36 | 24 | 50 | 1004 | 10 | O/NO 29.6 | |
| Oggi h: 14:00 | Sereno | 37 | 23 | 44 | 1005 | 10 | NO 29.6 | |
| Oggi h: 13:00 | Sereno | 36 | 25 | 53 | 1005 | 10 | O/NO 24 | |
| Oggi h: 12:00 | Sereno | 36 | 24 | 50 | 1005 | 10 | O/NO 24 | |
| Oggi h: 11:00 | Sereno | 37 | 23 | 44 | 1005 | 10 | NO 22.2 | |
| Oggi h: 10:00 | Sereno | 35 | 23 | 49 | 1006 | 10 | N/NO 18.5 | |
| Oggi h: 09:00 | Sereno | 34 | 23 | 52 | 1006 | 10 | N/NO 18.5 | |
| Oggi h: 08:00 | Sereno | 32 | 26 | 70 | 1005 | 10 | N 13 | |
| Oggi h: 07:00 | Sereno | 31 | 25 | 70 | 1005 | 10 | N 5.5 | |
| Oggi h: 06:00 | Sereno | 31 | 26 | 74 | 1004 | 10 | N/NO 11.1 | |
| Oggi h: 05:00 | Sereno | 31 | 26 | 74 | 1004 | 10 | N/NO 9.3 | |
| Oggi h: 04:00 | Sereno | 31 | 23 | 62 | 1004 | 10 | N/NO 7.4 | |
| Oggi h: 03:00 | Sereno | 32 | 21 | 52 | 1004 | 10 | NO 11.1 | |
| Oggi h: 02:00 | Sereno | 33 | 19 | 43 | 1004 | 10 | NO 14.8 | |
| Oggi h: 01:00 | Poco Nuvoloso | 33 | 18 | 41 | 1004 | 10 | N 7.4 | |
| Oggi h: 00:00 | Nuvoloso | 34 | 18 | 38 | 1005 | 10 | N 13 | |
| Ieri h: 23:00 | Nuvoloso | 34 | 19 | 41 | 1005 | 10 | N 18.5 | |
| Ieri h: 22:00 | Poco Nuvoloso | 34 | 21 | 46 | 1005 | 10 | N 14.8 | |
| Ieri h: 21:00 | Sereno | 34 | 21 | 46 | 1005 | 10 | N 18.5 | |



